SBOSBO MXP / LIMC
Speedbird OnlineSpeedbird Online MXP / LIMC

Malpensa International Airport
06:31 -1.1°C

Location Milano, Italy
Latitude: 45.6306
Longitude: 8.72811
Web Airport Website | Wikipedia
Altitude 234 Meter / 768 Feet
Distance 909 KM / 565 Miles
from London.
Time Zone UTC +1 hours (Europe/Rome)
Codes IATA: MXP
ICAO: LIMC
Currency £1 equals EUR 1.14
Runways
RunwayLength (m)Surface
17L3920Asphalt
17R3920Asphalt
35L3920Asphalt
35R3920Asphalt
Radio
TypeDescriptionFrequency
APPMILANO APP132.7
ATISATIS120.025
CLDCLNC DEL120.9
DEPMILANO DEP126.75
GNDGND121.9
TWRTWR119
Live ATC
METAR LIMC 290450Z 01007KT CAVOK M03/M04 Q1024 NOSIG
TAF TAF LIMC 282300Z 2900/3006 VRB05KT CAVOK TEMPO 2903/2908 3000 BCFG TEMPO 3002/3006 1200 BCFG
Weather As Of 29 Jan 2023 06:31
Description Clear sky
Wind 11 km/h from North (10°)
Cloud Cover 0%
Precipitation Rain: none, Snow: none
Sunrise 07:50
Sunset 17:25
Lounges Monteverdi Lounge , Terminal 1
Sala Montale Lounge, Terminal 1
Rotations During the last 90 days there were
225 flights from LHR
225 flights to LHR



Support Speedbird Online

© 2017-2023 Speedbird Online